Time;durP1;ratioP1;P1;durP2;ratioP2;P2;SDS_P1;SDS_P2;PMS_P1;PMS_P2;Temp;Humidity;BMP_temperature;BMP_pressure;BME280_temperature;BME280_humidity;BME280_pressure;Samples;Min_cycle;Max_cycle;Signal;HPM_P1;HPM_P2
2023/08/28 00:02:07;;;;;;;2.97;2.30;;;;;;;;;;4966409;28;20181;-83
2023/08/28 00:04:33;;;;;;;3.20;1.70;;;;;;;;;;4964588;28;20461;-82
2023/08/28 00:06:59;;;;;;;3.20;2.87;;;;;;;;;;4966313;28;20425;-83
2023/08/28 00:09:25;;;;;;;3.30;2.20;;;;;;;;;;4966091;28;20179;-84
2023/08/28 00:11:51;;;;;;;3.93;2.03;;;;;;;;;;4964695;28;20177;-80
2023/08/28 00:14:17;;;;;;;4.53;1.80;;;;;;;;;;4966239;28;20186;-84
2023/08/28 00:16:43;;;;;;;7.10;2.13;;;;;;;;;;4965466;28;20201;-85
2023/08/28 00:19:09;;;;;;;3.60;2.60;;;;;;;;;;4964883;28;20598;-85
2023/08/28 00:21:35;;;;;;;4.53;2.40;;;;;;;;;;4966578;28;20198;-86
2023/08/28 00:24:01;;;;;;;4.43;1.70;;;;;;;;;;4965177;28;20458;-83
2023/08/28 00:26:27;;;;;;;4.80;2.50;;;;;;;;;;4963846;28;20614;-80
2023/08/28 00:28:53;;;;;;;3.13;2.50;;;;;;;;;;4970238;28;20436;-84
2023/08/28 00:31:19;;;;;;;2.77;2.53;;;;;;;;;;4964717;28;20409;-83
2023/08/28 00:33:45;;;;;;;3.00;2.00;;;;;;;;;;4965522;28;20419;-85
2023/08/28 00:36:11;;;;;;;3.00;1.73;;;;;;;;;;4963811;28;20210;-82
2023/08/28 00:38:37;;;;;;;4.97;2.30;;;;;;;;;;4966108;28;20261;-85
2023/08/28 00:41:03;;;;;;;2.93;2.40;;;;;;;;;;4965156;28;20898;-82
2023/08/28 00:43:29;;;;;;;3.13;1.67;;;;;;;;;;4963169;28;20179;-81
2023/08/28 00:45:55;;;;;;;2.70;1.93;;;;;;;;;;4965552;28;20488;-84
2023/08/28 00:48:21;;;;;;;3.50;2.10;;;;;;;;;;4964789;28;20423;-85
2023/08/28 00:50:47;;;;;;;2.80;1.70;;;;;;;;;;4963508;28;21104;-85
2023/08/28 00:53:14;;;;;;;2.17;1.50;;;;;;;;;;4965956;28;20419;-86
2023/08/28 00:55:40;;;;;;;2.30;1.37;;;;;;;;;;4964451;28;20429;-78
2023/08/28 00:58:06;;;;;;;3.30;1.87;;;;;;;;;;4964435;28;20510;-84
2023/08/28 01:00:32;;;;;;;3.47;1.87;;;;;;;;;;4965372;28;20925;-83
2023/08/28 01:02:58;;;;;;;3.10;1.37;;;;;;;;;;4964144;28;20270;-81
2023/08/28 01:05:33;;;;;;;4.27;1.27;;;;;;;;;;4964487;28;20493;-86
2023/08/28 01:08:03;;;;;;;2.50;1.63;;;;;;;;;;4965361;28;20422;-84
2023/08/28 01:10:35;;;;;;;2.87;1.80;;;;;;;;;;4965128;28;20415;-84
2023/08/28 01:13:15;;;;;;;2.07;1.53;;;;;;;;;;4964329;28;20914;-82
2023/08/28 01:15:41;;;;;;;2.50;1.67;;;;;;;;;;4963970;28;20866;-83
2023/08/28 01:18:07;;;;;;;3.93;1.87;;;;;;;;;;4964083;28;20469;-84
2023/08/28 01:20:34;;;;;;;3.10;1.67;;;;;;;;;;4965549;28;20414;-82
2023/08/28 01:22:59;;;;;;;3.50;1.80;;;;;;;;;;4964042;28;20834;-84
2023/08/28 01:25:26;;;;;;;2.97;2.03;;;;;;;;;;4964190;28;20410;-84
2023/08/28 01:27:52;;;;;;;4.67;2.60;;;;;;;;;;4965376;28;20427;-84
2023/08/28 01:30:18;;;;;;;2.70;1.30;;;;;;;;;;4963349;28;20407;-84
2023/08/28 01:32:45;;;;;;;3.50;1.53;;;;;;;;;;4964276;28;20422;-84
2023/08/28 01:35:12;;;;;;;3.30;1.80;;;;;;;;;;4964053;28;20432;-82
2023/08/28 01:37:43;;;;;;;5.00;1.90;;;;;;;;;;4963561;28;20486;-85
2023/08/28 01:40:10;;;;;;;4.20;1.83;;;;;;;;;;4963479;28;20411;-83
2023/08/28 01:42:36;;;;;;;2.60;1.63;;;;;;;;;;4965248;28;20524;-85
2023/08/28 01:45:03;;;;;;;3.20;2.13;;;;;;;;;;4963724;28;20511;-85
2023/08/28 01:47:29;;;;;;;2.80;1.43;;;;;;;;;;4962252;28;20439;-85
2023/08/28 01:49:54;;;;;;;2.57;2.23;;;;;;;;;;4965088;28;20814;-84
2023/08/28 01:52:20;;;;;;;3.20;2.10;;;;;;;;;;4963751;28;20430;-84
2023/08/28 01:54:46;;;;;;;4.07;2.60;;;;;;;;;;4963641;28;20779;-81
2023/08/28 01:57:12;;;;;;;3.90;1.90;;;;;;;;;;4964999;28;20465;-84
2023/08/28 01:59:38;;;;;;;4.87;2.50;;;;;;;;;;4963003;28;20450;-83
2023/08/28 02:02:04;;;;;;;3.90;2.10;;;;;;;;;;4963918;28;20179;-83
2023/08/28 02:04:30;;;;;;;5.30;2.23;;;;;;;;;;4964735;28;20270;-83
2023/08/28 02:06:56;;;;;;;2.80;2.10;;;;;;;;;;4962925;28;20839;-84
2023/08/28 02:09:22;;;;;;;3.70;2.80;;;;;;;;;;4964132;28;20173;-85
2023/08/28 02:11:49;;;;;;;4.43;2.23;;;;;;;;;;4964523;28;20431;-85
2023/08/28 02:14:15;;;;;;;2.50;2.00;;;;;;;;;;4962607;28;20419;-85
2023/08/28 02:16:41;;;;;;;4.83;2.07;;;;;;;;;;4964206;28;20495;-84
2023/08/28 02:19:07;;;;;;;6.23;2.10;;;;;;;;;;4964386;28;20423;-84
2023/08/28 02:21:34;;;;;;;3.83;2.67;;;;;;;;;;4964537;28;20407;-83
2023/08/28 02:24:00;;;;;;;5.00;2.03;;;;;;;;;;4968188;28;20502;-83
2023/08/28 02:26:25;;;;;;;4.27;2.87;;;;;;;;;;4966665;28;20533;-82
2023/08/28 02:28:51;;;;;;;4.57;2.40;;;;;;;;;;4966263;28;20185;-80
2023/08/28 02:31:17;;;;;;;5.30;3.33;;;;;;;;;;4968095;28;20510;-83
2023/08/28 02:33:44;;;;;;;4.37;2.73;;;;;;;;;;4967290;28;20200;-83
2023/08/28 02:36:10;;;;;;;5.33;2.67;;;;;;;;;;4966466;28;20199;-81
2023/08/28 02:38:36;;;;;;;4.30;2.40;;;;;;;;;;4968429;28;20444;-83
2023/08/28 02:41:03;;;;;;;3.97;3.40;;;;;;;;;;4967150;28;20206;-82
2023/08/28 02:43:29;;;;;;;4.57;3.20;;;;;;;;;;4966317;28;20426;-83
2023/08/28 02:45:55;;;;;;;6.90;3.50;;;;;;;;;;4968316;28;20402;-83
2023/08/28 02:48:21;;;;;;;4.13;3.70;;;;;;;;;;4966682;28;20960;-83
2023/08/28 02:50:50;;;;;;;6.27;4.30;;;;;;;;;;4966649;28;20264;-84
2023/08/28 02:53:16;;;;;;;7.43;3.83;;;;;;;;;;4968187;28;20199;-83
2023/08/28 02:55:42;;;;;;;5.30;3.73;;;;;;;;;;4966874;28;20413;-83
2023/08/28 02:58:09;;;;;;;3.90;2.43;;;;;;;;;;4966355;28;20467;-82
2023/08/28 03:00:37;;;;;;;4.20;3.60;;;;;;;;;;4967844;28;20411;-84
2023/08/28 03:03:03;;;;;;;4.97;3.23;;;;;;;;;;4966930;28;20438;-81
2023/08/28 03:05:29;;;;;;;5.60;5.10;;;;;;;;;;4966105;28;20916;-83
2023/08/28 03:07:55;;;;;;;5.43;4.00;;;;;;;;;;4967808;28;20530;-82
2023/08/28 03:10:21;;;;;;;6.90;4.30;;;;;;;;;;4966555;28;20411;-83
2023/08/28 03:12:47;;;;;;;4.80;4.30;;;;;;;;;;4966416;28;20498;-83
2023/08/28 03:15:13;;;;;;;4.63;4.20;;;;;;;;;;4967957;28;20508;-83
2023/08/28 03:17:39;;;;;;;4.90;4.27;;;;;;;;;;4965977;28;20515;-81
2023/08/28 03:20:09;;;;;;;4.80;4.40;;;;;;;;;;4966630;28;20260;-83
2023/08/28 03:22:35;;;;;;;5.47;4.80;;;;;;;;;;4967647;28;20196;-83
2023/08/28 03:25:01;;;;;;;7.30;4.50;;;;;;;;;;4966253;28;20404;-82
2023/08/28 03:27:26;;;;;;;6.90;5.20;;;;;;;;;;4966341;28;20582;-84
2023/08/28 03:29:52;;;;;;;8.10;5.40;;;;;;;;;;4967165;28;20236;-85
2023/08/28 03:32:18;;;;;;;7.47;5.00;;;;;;;;;;4965408;28;20470;-83
2023/08/28 03:34:44;;;;;;;6.33;5.73;;;;;;;;;;4965353;28;20176;-83
2023/08/28 03:37:10;;;;;;;5.53;4.57;;;;;;;;;;4967155;28;20209;-83
2023/08/28 03:39:36;;;;;;;7.80;5.73;;;;;;;;;;4965421;28;20555;-80
2023/08/28 03:42:02;;;;;;;6.60;5.80;;;;;;;;;;4966563;28;20279;-83
2023/08/28 03:44:28;;;;;;;8.40;5.37;;;;;;;;;;4966464;28;20913;-82
2023/08/28 03:46:54;;;;;;;5.47;5.07;;;;;;;;;;4965224;28;20479;-84
2023/08/28 03:49:19;;;;;;;8.93;6.03;;;;;;;;;;4966764;28;20173;-83
2023/08/28 03:51:45;;;;;;;7.90;6.23;;;;;;;;;;4965044;28;20944;-83
2023/08/28 03:54:14;;;;;;;6.40;5.80;;;;;;;;;;4957542;28;20180;-80
2023/08/28 03:56:40;;;;;;;6.30;5.80;;;;;;;;;;4956819;28;20206;-83
2023/08/28 03:59:06;;;;;;;7.77;5.60;;;;;;;;;;4956470;28;20814;-80
2023/08/28 04:01:33;;;;;;;9.33;6.90;;;;;;;;;;4956755;28;20416;-82
2023/08/28 04:03:59;;;;;;;9.87;5.57;;;;;;;;;;4956537;28;20435;-83
2023/08/28 04:06:25;;;;;;;8.53;5.00;;;;;;;;;;4956707;28;20917;-85
2023/08/28 04:08:51;;;;;;;7.27;6.30;;;;;;;;;;4956630;28;20225;-81
2023/08/28 04:11:17;;;;;;;6.80;5.70;;;;;;;;;;4956495;29;20631;-79
2023/08/28 04:13:43;;;;;;;7.73;6.93;;;;;;;;;;4956079;28;20184;-83
2023/08/28 04:16:09;;;;;;;7.90;6.60;;;;;;;;;;4956377;28;20613;-81
2023/08/28 04:18:35;;;;;;;8.30;5.87;;;;;;;;;;4956343;28;20227;-82
2023/08/28 04:21:03;;;;;;;8.50;7.00;;;;;;;;;;4956364;28;20181;-81
2023/08/28 04:23:29;;;;;;;6.80;6.07;;;;;;;;;;4956413;28;20425;-81
2023/08/28 04:25:55;;;;;;;7.20;6.50;;;;;;;;;;4963422;28;20424;-81
2023/08/28 04:28:21;;;;;;;9.60;7.03;;;;;;;;;;4975089;28;20641;-83
2023/08/28 04:30:47;;;;;;;8.60;7.00;;;;;;;;;;4975510;28;20200;-83
2023/08/28 04:33:13;;;;;;;8.00;7.00;;;;;;;;;;4975512;28;20532;-84
2023/08/28 04:35:39;;;;;;;8.27;6.10;;;;;;;;;;4975417;28;20416;-83
2023/08/28 04:38:05;;;;;;;8.70;7.87;;;;;;;;;;4975241;28;20475;-81
2023/08/28 04:40:31;;;;;;;9.40;8.60;;;;;;;;;;4975357;28;20410;-82
2023/08/28 04:42:57;;;;;;;8.47;7.67;;;;;;;;;;4974681;28;20263;-85
2023/08/28 04:45:23;;;;;;;7.80;7.00;;;;;;;;;;4974233;28;20168;-80
2023/08/28 04:47:48;;;;;;;10.83;8.73;;;;;;;;;;4977054;28;20423;-78
2023/08/28 04:50:15;;;;;;;11.10;7.97;;;;;;;;;;4973677;28;20417;-79
2023/08/28 04:52:41;;;;;;;8.70;7.90;;;;;;;;;;4955882;28;20585;-79
2023/08/28 04:55:07;;;;;;;9.47;8.57;;;;;;;;;;4955827;28;20453;-85
2023/08/28 04:57:33;;;;;;;9.60;8.48;;;;;;;;;;4955456;28;20451;-78
2023/08/28 04:59:59;;;;;;;10.60;8.00;;;;;;;;;;4970476;28;20550;-80
2023/08/28 05:02:24;;;;;;;10.53;8.90;;;;;;;;;;4974942;28;20898;-78
2023/08/28 05:04:50;;;;;;;9.90;9.00;;;;;;;;;;4974690;28;20473;-84
2023/08/28 05:07:16;;;;;;;11.07;9.07;;;;;;;;;;4974897;28;20784;-85
2023/08/28 05:09:42;;;;;;;10.00;8.23;;;;;;;;;;4974847;28;20177;-83
2023/08/28 05:12:08;;;;;;;11.47;10.17;;;;;;;;;;4974818;28;20184;-84
2023/08/28 05:14:34;;;;;;;10.53;9.03;;;;;;;;;;4972415;28;20275;-82
2023/08/28 05:17:00;;;;;;;10.07;8.17;;;;;;;;;;4957237;28;20543;-85
2023/08/28 05:19:26;;;;;;;9.33;8.10;;;;;;;;;;4968873;28;20426;-83
2023/08/28 05:21:52;;;;;;;9.57;8.50;;;;;;;;;;4964041;28;20188;-84
2023/08/28 05:24:17;;;;;;;9.33;8.43;;;;;;;;;;4962424;28;20429;-79
2023/08/28 05:26:43;;;;;;;9.07;8.13;;;;;;;;;;4945929;28;20583;-81
2023/08/28 05:29:09;;;;;;;9.40;8.40;;;;;;;;;;4964293;28;20418;-81
2023/08/28 05:31:35;;;;;;;12.60;8.40;;;;;;;;;;4966105;28;20215;-83
2023/08/28 05:34:01;;;;;;;11.10;10.00;;;;;;;;;;4974478;28;20418;-84
2023/08/28 05:36:27;;;;;;;12.47;9.23;;;;;;;;;;4974284;28;20471;-84
2023/08/28 05:38:56;;;;;;;11.27;10.27;;;;;;;;;;4974459;28;20248;-84
2023/08/28 05:41:22;;;;;;;12.20;10.33;;;;;;;;;;4974330;28;20420;-83
2023/08/28 05:43:48;;;;;;;10.23;8.50;;;;;;;;;;4973997;28;20868;-84
2023/08/28 05:46:14;;;;;;;10.00;9.03;;;;;;;;;;4968452;28;20457;-86
2023/08/28 05:48:40;;;;;;;10.70;9.20;;;;;;;;;;4963623;28;20424;-83
2023/08/28 05:51:06;;;;;;;8.77;7.70;;;;;;;;;;4963935;28;20198;-83
2023/08/28 05:53:32;;;;;;;8.30;7.50;;;;;;;;;;4954766;28;20418;-81
2023/08/28 05:55:58;;;;;;;7.87;7.10;;;;;;;;;;4964634;28;20211;-81
2023/08/28 05:58:24;;;;;;;10.30;7.30;;;;;;;;;;4964818;28;20523;-84
2023/08/28 06:00:50;;;;;;;7.20;6.37;;;;;;;;;;4964901;28;20410;-80
2023/08/28 06:03:16;;;;;;;7.57;5.67;;;;;;;;;;4963197;28;20419;-84
2023/08/28 06:05:42;;;;;;;5.33;4.80;;;;;;;;;;4964075;28;20220;-82
2023/08/28 06:08:08;;;;;;;9.53;5.20;;;;;;;;;;4964120;28;20428;-79
2023/08/28 06:10:38;;;;;;;6.00;5.40;;;;;;;;;;4968543;28;20450;-85
2023/08/28 06:13:04;;;;;;;4.87;3.90;;;;;;;;;;4973821;28;20426;-84
2023/08/28 06:15:30;;;;;;;5.37;4.43;;;;;;;;;;4956372;28;20432;-84
2023/08/28 06:17:57;;;;;;;7.60;3.80;;;;;;;;;;4954604;28;20480;-83
2023/08/28 06:20:23;;;;;;;5.20;3.07;;;;;;;;;;4954755;28;20453;-85
2023/08/28 06:22:49;;;;;;;5.03;2.67;;;;;;;;;;4954683;28;20922;-82
2023/08/28 06:25:15;;;;;;;4.13;2.70;;;;;;;;;;4954743;28;20416;-77
2023/08/28 06:27:40;;;;;;;4.97;2.23;;;;;;;;;;4954174;28;20188;-87
2023/08/28 06:30:07;;;;;;;2.63;2.40;;;;;;;;;;4954671;28;20180;-85
2023/08/28 06:32:33;;;;;;;3.10;2.50;;;;;;;;;;4954709;28;20186;-85
2023/08/28 06:35:02;;;;;;;4.50;1.50;;;;;;;;;;4954636;28;20423;-79
2023/08/28 06:37:28;;;;;;;4.13;1.83;;;;;;;;;;4954450;28;20476;-85
2023/08/28 06:39:54;;;;;;;3.00;1.47;;;;;;;;;;4954577;28;20748;-84
2023/08/28 06:42:20;;;;;;;6.50;1.60;;;;;;;;;;4954443;29;20187;-83
2023/08/28 06:44:46;;;;;;;4.17;1.20;;;;;;;;;;4952824;28;20439;-88
2023/08/28 06:47:13;;;;;;;3.63;0.87;;;;;;;;;;4954435;28;20421;-87
2023/08/28 06:49:39;;;;;;;3.30;0.90;;;;;;;;;;4953210;29;20185;-86
2023/08/28 06:52:05;;;;;;;1.07;0.73;;;;;;;;;;4954421;29;20425;-85
2023/08/28 06:54:32;;;;;;;1.67;0.87;;;;;;;;;;4954453;29;20944;-88
2023/08/28 06:56:58;;;;;;;4.50;0.67;;;;;;;;;;4954275;28;20479;-86
2023/08/28 06:59:24;;;;;;;2.30;0.50;;;;;;;;;;4954057;29;20409;-86
2023/08/28 07:01:50;;;;;;;3.63;1.00;;;;;;;;;;4954468;28;20788;-80
2023/08/28 07:04:16;;;;;;;2.97;0.63;;;;;;;;;;4954194;28;20463;-86
2023/08/28 07:06:42;;;;;;;3.40;0.33;;;;;;;;;;4954702;28;20627;-85
2023/08/28 07:09:08;;;;;;;2.00;0.57;;;;;;;;;;4957822;28;20177;-85
2023/08/28 07:11:34;;;;;;;2.70;0.70;;;;;;;;;;4957807;28;20204;-83
2023/08/28 07:13:59;;;;;;;1.43;0.40;;;;;;;;;;4957312;28;20508;-77
2023/08/28 07:16:25;;;;;;;2.00;0.20;;;;;;;;;;4957664;29;20559;-83
2023/08/28 07:18:51;;;;;;;3.07;0.60;;;;;;;;;;4957656;28;20698;-77
2023/08/28 07:21:17;;;;;;;1.80;0.40;;;;;;;;;;4956305;28;20178;-77
2023/08/28 07:23:43;;;;;;;2.43;0.27;;;;;;;;;;4957560;28;20173;-76
2023/08/28 07:26:09;;;;;;;2.07;0.40;;;;;;;;;;4957530;28;20183;-85
2023/08/28 07:28:35;;;;;;;3.33;0.60;;;;;;;;;;4957197;29;20184;-84
2023/08/28 07:31:03;;;;;;;1.83;0.20;;;;;;;;;;4957462;28;20191;-80
2023/08/28 07:33:29;;;;;;;2.33;0.30;;;;;;;;;;4957403;28;20230;-87
2023/08/28 07:35:55;;;;;;;2.10;0.90;;;;;;;;;;4957322;28;20937;-88
2023/08/28 07:38:21;;;;;;;2.97;0.70;;;;;;;;;;4957310;28;20480;-78
2023/08/28 07:40:47;;;;;;;4.00;0.50;;;;;;;;;;4957238;28;20180;-81
2023/08/28 07:43:13;;;;;;;3.10;0.63;;;;;;;;;;4956761;28;20626;-78
2023/08/28 07:45:39;;;;;;;1.30;0.50;;;;;;;;;;4955890;28;20783;-82
2023/08/28 07:48:05;;;;;;;2.03;0.27;;;;;;;;;;4956999;28;20413;-81
2023/08/28 07:50:31;;;;;;;3.97;0.37;;;;;;;;;;4957100;28;20890;-87
2023/08/28 07:52:58;;;;;;;3.57;0.30;;;;;;;;;;4957016;28;20451;-87
2023/08/28 07:55:24;;;;;;;2.83;0.50;;;;;;;;;;4956985;29;20267;-86
2023/08/28 07:57:49;;;;;;;4.67;1.13;;;;;;;;;;4956518;29;20539;-78
2023/08/28 08:00:16;;;;;;;2.57;0.37;;;;;;;;;;4956908;28;20468;-85
2023/08/28 08:02:42;;;;;;;2.30;0.40;;;;;;;;;;4956799;28;20188;-85
2023/08/28 08:05:11;;;;;;;2.00;0.30;;;;;;;;;;4956587;28;20459;-85
2023/08/28 08:07:40;;;;;;;1.67;0.20;;;;;;;;;;4956705;28;20417;-86
2023/08/28 08:10:11;;;;;;;1.47;0.33;;;;;;;;;;4956675;29;20849;-87
2023/08/28 08:12:38;;;;;;;3.13;0.40;;;;;;;;;;4956260;29;20420;-85
2023/08/28 08:15:04;;;;;;;1.70;0.20;;;;;;;;;;4956560;28;20472;-84
2023/08/28 08:17:30;;;;;;;2.30;0.40;;;;;;;;;;4956451;28;20472;-86
2023/08/28 08:19:56;;;;;;;2.50;0.30;;;;;;;;;;4955438;28;20769;-86
2023/08/28 08:22:22;;;;;;;1.40;0.30;;;;;;;;;;4956520;28;20564;-85
2023/08/28 08:24:48;;;;;;;3.50;0.33;;;;;;;;;;4955198;28;20272;-86
2023/08/28 08:27:13;;;;;;;2.27;0.53;;;;;;;;;;4956296;29;20208;-85
2023/08/28 08:29:40;;;;;;;1.33;0.40;;;;;;;;;;4956154;28;20521;-80
2023/08/28 08:32:06;;;;;;;2.43;0.50;;;;;;;;;;4956317;28;20260;-85
2023/08/28 08:34:32;;;;;;;1.90;0.20;;;;;;;;;;4956292;28;20448;-85
2023/08/28 08:36:59;;;;;;;2.50;0.57;;;;;;;;;;4954946;28;20228;-85
2023/08/28 08:39:24;;;;;;;4.63;0.40;;;;;;;;;;4954968;28;20539;-85
2023/08/28 08:41:51;;;;;;;2.90;0.30;;;;;;;;;;4956200;28;20516;-85
2023/08/28 08:44:17;;;;;;;5.73;0.67;;;;;;;;;;4955732;28;21071;-85
2023/08/28 08:46:46;;;;;;;2.30;0.47;;;;;;;;;;4956099;29;20496;-86
2023/08/28 08:49:13;;;;;;;1.03;0.20;;;;;;;;;;4956118;28;20413;-87
2023/08/28 08:51:42;;;;;;;2.40;0.30;;;;;;;;;;4956075;28;20440;-87
2023/08/28 08:54:15;;;;;;;3.23;0.30;;;;;;;;;;4956013;28;20423;-86
2023/08/28 08:56:41;;;;;;;2.20;0.30;;;;;;;;;;4955874;28;20475;-85
2023/08/28 08:59:07;;;;;;;2.33;0.30;;;;;;;;;;4954232;28;20783;-85
2023/08/28 09:01:33;;;;;;;0.93;0.20;;;;;;;;;;4955846;28;20467;-85
2023/08/28 09:04:02;;;;;;;5.23;0.47;;;;;;;;;;4955623;28;20850;-85
2023/08/28 09:06:29;;;;;;;1.47;0.50;;;;;;;;;;4955758;29;20503;-86
2023/08/28 09:08:55;;;;;;;3.03;0.20;;;;;;;;;;4956965;28;20421;-86
2023/08/28 09:11:22;;;;;;;1.73;0.40;;;;;;;;;;4961744;28;20416;-83
2023/08/28 09:13:49;;;;;;;1.93;0.20;;;;;;;;;;4955230;28;20819;-87
2023/08/28 09:16:15;;;;;;;0.60;0.20;;;;;;;;;;4955509;28;20898;-87
2023/08/28 09:18:41;;;;;;;2.93;0.30;;;;;;;;;;4955521;28;20427;-83
2023/08/28 09:21:07;;;;;;;1.27;0.30;;;;;;;;;;4955495;28;20177;-87
2023/08/28 09:23:34;;;;;;;1.10;0.30;;;;;;;;;;4955538;28;20448;-85
2023/08/28 09:26:01;;;;;;;1.60;0.23;;;;;;;;;;4955478;28;20463;-85
2023/08/28 09:28:27;;;;;;;2.80;0.50;;;;;;;;;;4955085;28;20408;-86
2023/08/28 09:30:53;;;;;;;1.60;0.20;;;;;;;;;;4955087;28;20409;-87
2023/08/28 09:33:19;;;;;;;1.30;0.43;;;;;;;;;;4953960;29;20424;-83
2023/08/28 09:35:45;;;;;;;2.97;0.23;;;;;;;;;;4955381;28;20188;-85
2023/08/28 09:38:11;;;;;;;1.10;0.30;;;;;;;;;;4955021;28;20977;-85
2023/08/28 09:40:41;;;;;;;1.53;0.30;;;;;;;;;;4955164;29;20204;-84
2023/08/28 09:43:14;;;;;;;0.70;0.23;;;;;;;;;;4954850;28;20827;-86
2023/08/28 09:45:40;;;;;;;1.23;0.30;;;;;;;;;;4955224;28;20660;-83
2023/08/28 09:48:07;;;;;;;2.30;0.30;;;;;;;;;;4955236;28;20430;-87
2023/08/28 09:50:34;;;;;;;0.67;0.20;;;;;;;;;;4955167;29;20412;-85
2023/08/28 09:53:10;;;;;;;1.13;0.20;;;;;;;;;;4955097;28;20439;-86
2023/08/28 09:55:52;;;;;;;4.43;0.53;;;;;;;;;;4955039;28;20411;-87
2023/08/28 09:58:18;;;;;;;0.77;0.20;;;;;;;;;;4954614;29;20483;-84
2023/08/28 10:00:44;;;;;;;2.23;0.40;;;;;;;;;;4954953;28;20513;-86
2023/08/28 10:03:11;;;;;;;0.90;0.23;;;;;;;;;;4955040;29;20432;-84
2023/08/28 10:05:38;;;;;;;2.00;0.50;;;;;;;;;;4960928;28;20821;-87
2023/08/28 10:08:07;;;;;;;3.63;0.43;;;;;;;;;;4955028;29;20420;-86
2023/08/28 10:10:33;;;;;;;0.97;0.33;;;;;;;;;;4954965;28;20405;-77
2023/08/28 10:13:00;;;;;;;0.50;0.20;;;;;;;;;;4954667;29;20432;-83
2023/08/28 10:15:26;;;;;;;0.93;0.40;;;;;;;;;;4954776;28;20417;-82
2023/08/28 10:17:53;;;;;;;1.03;0.23;;;;;;;;;;4953590;28;20483;-87
2023/08/28 10:20:20;;;;;;;0.87;0.20;;;;;;;;;;4954859;28;20504;-79
2023/08/28 10:22:47;;;;;;;0.80;0.20;;;;;;;;;;4954934;28;20408;-86
2023/08/28 10:25:13;;;;;;;2.03;0.30;;;;;;;;;;4953610;28;20443;-83
2023/08/28 10:27:40;;;;;;;1.40;0.30;;;;;;;;;;4954442;28;20427;-85
2023/08/28 10:30:08;;;;;;;2.17;0.40;;;;;;;;;;4954606;29;20416;-86
2023/08/28 10:32:34;;;;;;;1.23;0.40;;;;;;;;;;4954627;28;20420;-86
2023/08/28 10:35:01;;;;;;;1.23;0.37;;;;;;;;;;4954632;28;20416;-83
2023/08/28 10:37:28;;;;;;;0.93;0.30;;;;;;;;;;4954399;28;20977;-83
2023/08/28 10:39:57;;;;;;;1.37;0.40;;;;;;;;;;4954545;28;20412;-81
2023/08/28 10:42:23;;;;;;;1.20;0.20;;;;;;;;;;4955579;28;20420;-84
2023/08/28 10:44:50;;;;;;;3.43;0.30;;;;;;;;;;4958190;28;20465;-86
2023/08/28 10:47:16;;;;;;;1.20;0.33;;;;;;;;;;4958133;28;20424;-85
2023/08/28 10:49:42;;;;;;;2.97;0.40;;;;;;;;;;4967127;28;20420;-82
2023/08/28 10:52:09;;;;;;;1.60;0.30;;;;;;;;;;4964244;28;20417;-78
2023/08/28 10:54:44;;;;;;;1.67;0.40;;;;;;;;;;4958153;28;20414;-78
2023/08/28 10:57:27;;;;;;;0.80;0.20;;;;;;;;;;4957624;28;20828;-79
2023/08/28 10:59:53;;;;;;;0.80;0.30;;;;;;;;;;4963059;28;20495;-79
2023/08/28 11:02:20;;;;;;;2.10;0.20;;;;;;;;;;4957808;28;20416;-79
2023/08/28 11:04:46;;;;;;;1.10;0.20;;;;;;;;;;4957482;28;20452;-78
2023/08/28 11:07:21;;;;;;;2.87;0.67;;;;;;;;;;4956556;28;20759;-79
2023/08/28 11:09:47;;;;;;;2.57;0.23;;;;;;;;;;4957860;28;20404;-78
2023/08/28 11:12:16;;;;;;;2.90;0.20;;;;;;;;;;4957547;28;20944;-79
2023/08/28 11:14:43;;;;;;;1.07;0.30;;;;;;;;;;4965343;28;20905;-79
2023/08/28 11:17:12;;;;;;;0.83;0.20;;;;;;;;;;4975912;28;20494;-79
2023/08/28 11:19:56;;;;;;;2.30;0.27;;;;;;;;;;4976993;28;20412;-79
2023/08/28 11:22:34;;;;;;;2.70;0.30;;;;;;;;;;4976932;28;20412;-79
2023/08/28 11:25:00;;;;;;;2.40;0.30;;;;;;;;;;4976738;28;20494;-80
2023/08/28 11:27:35;;;;;;;2.00;0.43;;;;;;;;;;4976453;28;20420;-80
2023/08/28 11:30:05;;;;;;;1.00;0.27;;;;;;;;;;4975457;28;20451;-79
2023/08/28 11:32:31;;;;;;;0.97;0.20;;;;;;;;;;4976695;28;20420;-80
2023/08/28 11:35:13;;;;;;;2.80;0.50;;;;;;;;;;4976733;28;20400;-79
2023/08/28 11:37:43;;;;;;;1.10;0.30;;;;;;;;;;4975361;28;20501;-79
2023/08/28 11:40:10;;;;;;;1.03;0.40;;;;;;;;;;4976597;28;20412;-79
2023/08/28 11:42:36;;;;;;;1.37;0.30;;;;;;;;;;4976199;28;20407;-78
2023/08/28 11:45:04;;;;;;;1.30;0.23;;;;;;;;;;4975448;28;20427;-78
2023/08/28 11:47:30;;;;;;;3.60;0.70;;;;;;;;;;4976341;28;20411;-78
2023/08/28 11:49:57;;;;;;;1.93;0.30;;;;;;;;;;4976285;28;20420;-79
2023/08/28 11:52:23;;;;;;;1.13;0.30;;;;;;;;;;4976204;28;20471;-79
2023/08/28 11:54:50;;;;;;;0.53;0.20;;;;;;;;;;4976322;28;20788;-78
2023/08/28 11:57:17;;;;;;;2.20;0.40;;;;;;;;;;4972790;28;20551;-78
2023/08/28 11:59:44;;;;;;;3.37;0.40;;;;;;;;;;4970687;28;20458;-78
2023/08/28 12:02:11;;;;;;;2.20;0.50;;;;;;;;;;4976209;28;20424;-78
2023/08/28 12:04:37;;;;;;;2.00;0.30;;;;;;;;;;4971335;28;20836;-79
2023/08/28 12:07:05;;;;;;;0.90;0.20;;;;;;;;;;4956769;29;20509;-79
2023/08/28 12:09:31;;;;;;;0.80;0.20;;;;;;;;;;4956824;28;20181;-81
2023/08/28 12:11:57;;;;;;;1.70;0.20;;;;;;;;;;4948269;29;20436;-82
2023/08/28 12:14:24;;;;;;;0.70;0.20;;;;;;;;;;4947376;28;20415;-81
2023/08/28 12:16:50;;;;;;;2.27;0.30;;;;;;;;;;4977243;28;20606;-83
2023/08/28 12:19:22;;;;;;;3.57;1.17;;;;;;;;;;4947241;28;20475;-79
2023/08/28 12:21:48;;;;;;;1.03;0.20;;;;;;;;;;4946521;29;20794;-88
2023/08/28 12:24:14;;;;;;;1.60;0.20;;;;;;;;;;4950971;29;20425;-80
2023/08/28 12:26:43;;;;;;;1.10;0.30;;;;;;;;;;4956096;29;20177;-79
2023/08/28 12:29:09;;;;;;;2.30;0.60;;;;;;;;;;4956320;28;20181;-86
2023/08/28 12:31:36;;;;;;;1.33;0.30;;;;;;;;;;4956467;28;20507;-80
2023/08/28 12:34:14;;;;;;;0.47;0.20;;;;;;;;;;4971272;28;20770;-85
2023/08/28 12:36:43;;;;;;;1.40;0.30;;;;;;;;;;4956262;28;20526;-83
2023/08/28 12:39:13;;;;;;;1.57;0.30;;;;;;;;;;4956279;28;20857;-85
2023/08/28 12:41:49;;;;;;;0.70;0.20;;;;;;;;;;4970808;28;20404;-87
2023/08/28 12:44:14;;;;;;;1.70;0.20;;;;;;;;;;4956093;28;20416;-88
2023/08/28 12:46:40;;;;;;;1.37;0.20;;;;;;;;;;4956088;29;20497;-86
2023/08/28 12:49:07;;;;;;;2.77;0.53;;;;;;;;;;4955962;28;20416;-79
2023/08/28 12:51:33;;;;;;;1.90;0.20;;;;;;;;;;4955902;29;20216;-79
2023/08/28 12:53:59;;;;;;;1.57;0.30;;;;;;;;;;4953881;28;20413;-80
2023/08/28 12:56:25;;;;;;;1.40;0.30;;;;;;;;;;4936562;29;20416;-79
2023/08/28 12:58:51;;;;;;;2.07;0.47;;;;;;;;;;4936197;29;20575;-79
2023/08/28 13:01:17;;;;;;;1.77;0.20;;;;;;;;;;4936647;29;20201;-82
2023/08/28 13:03:43;;;;;;;1.93;0.20;;;;;;;;;;4943295;28;20266;-83
2023/08/28 13:06:09;;;;;;;1.00;0.20;;;;;;;;;;4962942;28;20774;-80
2023/08/28 13:08:36;;;;;;;1.80;0.30;;;;;;;;;;4965223;28;20495;-80
2023/08/28 13:11:02;;;;;;;1.00;0.37;;;;;;;;;;4964980;28;20185;-78
2023/08/28 13:13:27;;;;;;;1.40;0.60;;;;;;;;;;4961971;28;20420;-78
2023/08/28 13:15:55;;;;;;;1.60;0.20;;;;;;;;;;4965146;28;20552;-85
2023/08/28 13:18:21;;;;;;;2.07;0.30;;;;;;;;;;4964794;28;20212;-78
2023/08/28 13:20:47;;;;;;;3.57;0.37;;;;;;;;;;4962118;28;20452;-79
2023/08/28 13:23:13;;;;;;;2.43;0.20;;;;;;;;;;4965229;28;20251;-79
2023/08/28 13:25:39;;;;;;;2.97;0.40;;;;;;;;;;4964450;28;20404;-80
2023/08/28 13:28:05;;;;;;;4.93;0.60;;;;;;;;;;4963061;28;20451;-79
2023/08/28 13:30:31;;;;;;;1.17;0.33;;;;;;;;;;4965257;28;20416;-79
2023/08/28 13:33:01;;;;;;;0.97;0.20;;;;;;;;;;4963940;28;20428;-83
2023/08/28 13:35:28;;;;;;;1.57;0.20;;;;;;;;;;4962933;28;20428;-82
2023/08/28 13:37:54;;;;;;;2.43;0.30;;;;;;;;;;4972193;28;20485;-86
2023/08/28 13:40:20;;;;;;;1.30;0.50;;;;;;;;;;4974416;28;20825;-86
2023/08/28 13:42:46;;;;;;;3.13;0.40;;;;;;;;;;4974196;28;20414;-88
2023/08/28 13:45:12;;;;;;;1.13;0.40;;;;;;;;;;4974552;28;20439;-87
2023/08/28 13:47:38;;;;;;;1.37;0.53;;;;;;;;;;4974224;28;20411;-79
2023/08/28 13:50:05;;;;;;;2.50;0.60;;;;;;;;;;4974430;28;20428;-85
2023/08/28 13:52:31;;;;;;;1.40;0.30;;;;;;;;;;4974360;28;20448;-85
2023/08/28 13:55:04;;;;;;;1.80;0.20;;;;;;;;;;4957043;28;20420;-84
2023/08/28 13:57:30;;;;;;;4.20;0.30;;;;;;;;;;4973851;28;20487;-79
2023/08/28 13:59:56;;;;;;;1.00;0.30;;;;;;;;;;4974299;28;20465;-87
2023/08/28 14:02:22;;;;;;;1.37;0.37;;;;;;;;;;4974406;28;20435;-82
2023/08/28 14:04:48;;;;;;;4.50;0.50;;;;;;;;;;4974266;28;20455;-85
2023/08/28 14:07:14;;;;;;;2.60;0.20;;;;;;;;;;4974206;28;20487;-91
2023/08/28 14:09:40;;;;;;;2.67;0.53;;;;;;;;;;4974225;28;20185;-85
2023/08/28 14:12:07;;;;;;;1.47;0.40;;;;;;;;;;4973784;28;20551;-86
2023/08/28 14:14:32;;;;;;;2.87;0.20;;;;;;;;;;4974201;28;20519;-86
2023/08/28 14:16:58;;;;;;;1.00;0.30;;;;;;;;;;4976603;28;20568;-86
2023/08/28 14:19:24;;;;;;;0.93;0.20;;;;;;;;;;4978055;28;20263;-79
2023/08/28 14:21:51;;;;;;;2.93;0.40;;;;;;;;;;4977967;28;20876;-84
2023/08/28 14:24:18;;;;;;;1.60;0.30;;;;;;;;;;4976155;28;20188;-81
2023/08/28 14:26:44;;;;;;;2.50;0.60;;;;;;;;;;4976792;28;20515;-85
2023/08/28 14:29:10;;;;;;;2.60;0.20;;;;;;;;;;4976438;28;20530;-79
2023/08/28 14:31:36;;;;;;;1.10;0.30;;;;;;;;;;4976431;28;20604;-79
2023/08/28 14:34:02;;;;;;;1.13;0.30;;;;;;;;;;4969762;28;20416;-87
2023/08/28 14:36:28;;;;;;;1.33;0.20;;;;;;;;;;4969418;28;20403;-83
2023/08/28 14:38:54;;;;;;;0.50;0.27;;;;;;;;;;4968433;28;20486;-82
2023/08/28 14:41:20;;;;;;;0.90;0.30;;;;;;;;;;4966586;28;20503;-81